Pays
Station

 

Conditions  météo  pour  Klagenfurt-Flughafen  -  Autriche    Autriche

  
0 °C
    
 
 

METAR pour Klagenfurt-Flughafen :

LOWK 100320Z AUTO 31004KT 270V330 9000 FEW005 BKN012 00/M00 Q1014

 

Voici le bulletin pour Klagenfurt-Flughafen - Autriche.
 
Le bulletin a été fait il y a 14 minutes, à 03:20 UTC .
Le vent soufflait à la vitesse de 2.1 mètres par seconde de Nord-ouest (310°), variant entre Ouest (270°) et Nord/Nord-ouest (330°).
 
La température était de 0 °C
La température ressentie était de -3 °C.
 
La pression atmosphérique était de 1014 hPa.
Il y avait 1 à 2/8ème de nébulosité à une hauteur de 152 mètres et 5 à 7/8ème de nébulosité à une hauteur de 366 mètres.
 
La visibilité globale était de 9.0 kilomètres.
 

 
 
 

Pays :   A   B   C   D   E   F   G   H   I   J   K   L   M   N   O   P   Q   R   S   T   U   V   W   Y   Z

 

Partenaires :  Info Météo avec Met'info
Météo Marine avec MeteoMarine.net
Infos Site  |  Infos Légales  |  Crédits  |  Confidentialité
Contactez-nous  |  Ajouter aux favoris
© 2013-2019 METAR - Tous droits réservés